sensor_id;sensor_type;location;lat;lon;timestamp;pressure;altitude;pressure_sealevel;temperature;humidity
34081;BME280;20358;50.272;19.026;2022-09-04T00:00:27;98571.16;;;13.84;68.79
34081;BME280;20358;50.272;19.026;2022-09-04T00:03:43;98564.19;;;13.83;68.87
34081;BME280;20358;50.272;19.026;2022-09-04T00:07:01;98552.84;;;13.82;68.93
34081;BME280;20358;50.272;19.026;2022-09-04T00:10:16;98559.03;;;13.81;68.94
34081;BME280;20358;50.272;19.026;2022-09-04T00:13:28;98560.19;;;13.77;68.97
34081;BME280;20358;50.272;19.026;2022-09-04T00:16:41;98568.34;;;13.73;69.20
34081;BME280;20358;50.272;19.026;2022-09-04T00:19:51;98564.31;;;13.67;69.37
34081;BME280;20358;50.272;19.026;2022-09-04T00:23:10;98566.22;;;13.65;69.47
34081;BME280;20358;50.272;19.026;2022-09-04T00:26:32;98561.13;;;13.62;69.49
34081;BME280;20358;50.272;19.026;2022-09-04T00:29:49;98563.78;;;13.62;69.76
34081;BME280;20358;50.272;19.026;2022-09-04T00:33:01;98572.53;;;13.63;69.63
34081;BME280;20358;50.272;19.026;2022-09-04T00:36:12;98570.00;;;13.61;69.79
34081;BME280;20358;50.272;19.026;2022-09-04T00:39:30;98580.34;;;13.64;69.80
34081;BME280;20358;50.272;19.026;2022-09-04T00:42:58;98576.00;;;13.63;69.97
34081;BME280;20358;50.272;19.026;2022-09-04T00:46:30;98577.72;;;13.64;70.01
34081;BME280;20358;50.272;19.026;2022-09-04T00:49:51;98582.00;;;13.65;69.98
34081;BME280;20358;50.272;19.026;2022-09-04T00:53:38;98579.31;;;13.67;69.93
34081;BME280;20358;50.272;19.026;2022-09-04T01:00:35;98592.53;;;13.65;70.07
34081;BME280;20358;50.272;19.026;2022-09-04T01:03:57;98587.09;;;13.68;70.07
34081;BME280;20358;50.272;19.026;2022-09-04T01:07:26;98587.75;;;13.72;70.15
34081;BME280;20358;50.272;19.026;2022-09-04T01:10:49;98582.56;;;13.70;70.08
34081;BME280;20358;50.272;19.026;2022-09-04T01:14:05;98585.38;;;13.67;70.03
34081;BME280;20358;50.272;19.026;2022-09-04T01:17:24;98586.97;;;13.70;70.21
34081;BME280;20358;50.272;19.026;2022-09-04T01:20:46;98584.56;;;13.67;69.98
34081;BME280;20358;50.272;19.026;2022-09-04T01:24:31;98594.81;;;13.57;70.01
34081;BME280;20358;50.272;19.026;2022-09-04T01:27:49;98587.59;;;13.46;70.19
34081;BME280;20358;50.272;19.026;2022-09-04T01:31:11;98588.63;;;13.44;70.59
34081;BME280;20358;50.272;19.026;2022-09-04T01:34:34;98592.78;;;13.48;70.67
34081;BME280;20358;50.272;19.026;2022-09-04T01:38:03;98597.75;;;13.53;70.66
34081;BME280;20358;50.272;19.026;2022-09-04T01:41:14;98599.44;;;13.54;70.47
34081;BME280;20358;50.272;19.026;2022-09-04T01:44:28;98604.53;;;13.57;70.73
34081;BME280;20358;50.272;19.026;2022-09-04T01:47:39;98601.78;;;13.58;70.71
34081;BME280;20358;50.272;19.026;2022-09-04T01:50:52;98593.88;;;13.58;70.55
34081;BME280;20358;50.272;19.026;2022-09-04T01:54:35;98591.69;;;13.65;70.76
34081;BME280;20358;50.272;19.026;2022-09-04T01:57:55;98590.66;;;13.67;70.59
34081;BME280;20358;50.272;19.026;2022-09-04T02:01:16;98596.59;;;13.71;70.60
34081;BME280;20358;50.272;19.026;2022-09-04T02:04:30;98593.84;;;13.72;70.56
34081;BME280;20358;50.272;19.026;2022-09-04T02:07:44;98593.56;;;13.77;70.58
34081;BME280;20358;50.272;19.026;2022-09-04T02:10:55;98595.16;;;13.79;70.61
34081;BME280;20358;50.272;19.026;2022-09-04T02:14:15;98594.97;;;13.82;70.55
34081;BME280;20358;50.272;19.026;2022-09-04T02:17:33;98593.06;;;13.84;70.42
34081;BME280;20358;50.272;19.026;2022-09-04T02:20:48;98594.56;;;13.88;70.52
34081;BME280;20358;50.272;19.026;2022-09-04T02:24:02;98592.66;;;13.90;70.44
34081;BME280;20358;50.272;19.026;2022-09-04T02:27:15;98589.84;;;13.93;70.53
34081;BME280;20358;50.272;19.026;2022-09-04T02:30:25;98591.34;;;13.97;70.36
34081;BME280;20358;50.272;19.026;2022-09-04T02:33:44;98584.94;;;14.01;70.34
34081;BME280;20358;50.272;19.026;2022-09-04T02:36:55;98588.53;;;14.00;70.16
34081;BME280;20358;50.272;19.026;2022-09-04T02:40:11;98586.81;;;13.99;70.02
34081;BME280;20358;50.272;19.026;2022-09-04T02:43:31;98579.03;;;13.98;69.96
34081;BME280;20358;50.272;19.026;2022-09-04T02:46:49;98578.47;;;13.93;70.06
34081;BME280;20358;50.272;19.026;2022-09-04T02:50:08;98576.66;;;13.93;69.77
34081;BME280;20358;50.272;19.026;2022-09-04T02:53:27;98576.84;;;13.90;69.88
34081;BME280;20358;50.272;19.026;2022-09-04T02:56:43;98569.72;;;13.92;69.92
34081;BME280;20358;50.272;19.026;2022-09-04T02:59:59;98562.09;;;13.88;69.84
34081;BME280;20358;50.272;19.026;2022-09-04T03:03:14;98570.31;;;13.83;69.56
34081;BME280;20358;50.272;19.026;2022-09-04T03:06:39;98573.34;;;13.77;69.91
34081;BME280;20358;50.272;19.026;2022-09-04T03:09:59;98570.91;;;13.74;69.88
34081;BME280;20358;50.272;19.026;2022-09-04T03:13:21;98567.72;;;13.69;70.09
34081;BME280;20358;50.272;19.026;2022-09-04T03:16:34;98578.25;;;13.69;70.07
34081;BME280;20358;50.272;19.026;2022-09-04T03:19:49;98572.69;;;13.74;70.25
34081;BME280;20358;50.272;19.026;2022-09-04T03:23:03;98570.72;;;13.77;70.11
34081;BME280;20358;50.272;19.026;2022-09-04T03:26:21;98584.81;;;13.76;69.91
34081;BME280;20358;50.272;19.026;2022-09-04T03:29:35;98574.28;;;13.76;70.22
34081;BME280;20358;50.272;19.026;2022-09-04T03:32:50;98581.88;;;13.81;69.96
34081;BME280;20358;50.272;19.026;2022-09-04T03:36:02;98581.88;;;13.81;69.84
34081;BME280;20358;50.272;19.026;2022-09-04T03:39:23;98570.50;;;13.80;69.91
34081;BME280;20358;50.272;19.026;2022-09-04T03:42:39;98574.09;;;13.79;70.04
34081;BME280;20358;50.272;19.026;2022-09-04T03:45:55;98574.84;;;13.81;70.12
34081;BME280;20358;50.272;19.026;2022-09-04T03:49:13;98586.09;;;13.83;69.91
34081;BME280;20358;50.272;19.026;2022-09-04T03:52:29;98582.53;;;13.84;70.00
34081;BME280;20358;50.272;19.026;2022-09-04T03:55:56;98578.75;;;13.88;69.97
34081;BME280;20358;50.272;19.026;2022-09-04T03:59:16;98585.72;;;13.89;69.99
34081;BME280;20358;50.272;19.026;2022-09-04T04:02:36;98582.13;;;13.90;70.07
34081;BME280;20358;50.272;19.026;2022-09-04T04:05:52;98583.63;;;13.94;70.29
34081;BME280;20358;50.272;19.026;2022-09-04T04:13:08;98586.63;;;14.02;70.06
34081;BME280;20358;50.272;19.026;2022-09-04T04:16:27;98592.09;;;13.99;69.81
34081;BME280;20358;50.272;19.026;2022-09-04T04:19:45;98598.28;;;13.98;70.14
34081;BME280;20358;50.272;19.026;2022-09-04T04:23:07;98601.59;;;14.02;70.27
34081;BME280;20358;50.272;19.026;2022-09-04T04:26:29;98600.72;;;14.01;70.05
34081;BME280;20358;50.272;19.026;2022-09-04T04:30:04;98604.09;;;14.03;69.97
34081;BME280;20358;50.272;19.026;2022-09-04T04:33:22;98603.56;;;13.98;69.83
34081;BME280;20358;50.272;19.026;2022-09-04T04:36:37;98608.19;;;13.95;69.97
34081;BME280;20358;50.272;19.026;2022-09-04T04:39:51;98613.34;;;13.96;70.06
34081;BME280;20358;50.272;19.026;2022-09-04T04:43:13;98618.44;;;13.99;70.21
34081;BME280;20358;50.272;19.026;2022-09-04T04:46:35;98623.69;;;13.99;70.12
34081;BME280;20358;50.272;19.026;2022-09-04T04:49:56;98632.34;;;14.01;70.16
34081;BME280;20358;50.272;19.026;2022-09-04T04:53:15;98637.63;;;14.01;70.05
34081;BME280;20358;50.272;19.026;2022-09-04T04:56:28;98648.16;;;14.01;70.10
34081;BME280;20358;50.272;19.026;2022-09-04T04:59:44;98640.44;;;13.98;69.99
34081;BME280;20358;50.272;19.026;2022-09-04T05:03:03;98634.97;;;14.01;70.12
34081;BME280;20358;50.272;19.026;2022-09-04T05:06:18;98647.88;;;14.06;69.96
34081;BME280;20358;50.272;19.026;2022-09-04T05:09:33;98658.34;;;14.07;69.77
34081;BME280;20358;50.272;19.026;2022-09-04T05:12:54;98658.50;;;14.04;69.63
34081;BME280;20358;50.272;19.026;2022-09-04T05:16:11;98655.97;;;14.03;70.05
34081;BME280;20358;50.272;19.026;2022-09-04T05:19:28;98658.34;;;14.07;70.09
34081;BME280;20358;50.272;19.026;2022-09-04T05:22:41;98661.34;;;14.16;69.81
34081;BME280;20358;50.272;19.026;2022-09-04T05:25:53;98661.78;;;14.22;69.82
34081;BME280;20358;50.272;19.026;2022-09-04T05:29:09;98659.41;;;14.32;69.73
34081;BME280;20358;50.272;19.026;2022-09-04T05:32:22;98654.41;;;14.27;69.29
34081;BME280;20358;50.272;19.026;2022-09-04T05:35:39;98654.59;;;14.24;69.47
34081;BME280;20358;50.272;19.026;2022-09-04T05:38:57;98662.25;;;14.29;69.69
34081;BME280;20358;50.272;19.026;2022-09-04T05:42:31;98660.69;;;14.39;69.76
34081;BME280;20358;50.272;19.026;2022-09-04T05:45:51;98671.38;;;14.50;69.52
34081;BME280;20358;50.272;19.026;2022-09-04T05:49:11;98674.25;;;14.59;69.18
34081;BME280;20358;50.272;19.026;2022-09-04T05:52:38;98675.47;;;14.68;68.99
34081;BME280;20358;50.272;19.026;2022-09-04T05:56:09;98680.31;;;14.74;69.24
34081;BME280;20358;50.272;19.026;2022-09-04T05:59:53;98683.09;;;14.85;68.95
34081;BME280;20358;50.272;19.026;2022-09-04T06:03:35;98684.81;;;14.99;68.84
34081;BME280;20358;50.272;19.026;2022-09-04T06:06:53;98685.22;;;15.05;68.35
34081;BME280;20358;50.272;19.026;2022-09-04T06:10:13;98692.00;;;15.09;68.58
34081;BME280;20358;50.272;19.026;2022-09-04T06:13:42;98695.22;;;15.14;68.27
34081;BME280;20358;50.272;19.026;2022-09-04T06:17:06;98696.25;;;15.24;68.15
34081;BME280;20358;50.272;19.026;2022-09-04T06:20:26;98693.94;;;15.32;67.76
34081;BME280;20358;50.272;19.026;2022-09-04T06:23:47;98693.75;;;15.36;67.73
34081;BME280;20358;50.272;19.026;2022-09-04T06:27:14;98700.28;;;15.43;67.63
34081;BME280;20358;50.272;19.026;2022-09-04T06:30:25;98696.25;;;15.50;67.68
34081;BME280;20358;50.272;19.026;2022-09-04T06:33:55;98696.91;;;15.66;67.17
34081;BME280;20358;50.272;19.026;2022-09-04T06:37:15;98696.47;;;15.72;67.01
34081;BME280;20358;50.272;19.026;2022-09-04T06:40:36;98702.13;;;15.91;67.08
34081;BME280;20358;50.272;19.026;2022-09-04T06:43:54;98700.81;;;16.09;66.76
34081;BME280;20358;50.272;19.026;2022-09-04T06:47:16;98715.84;;;16.21;66.20
34081;BME280;20358;50.272;19.026;2022-09-04T06:50:33;98716.63;;;16.34;65.74
34081;BME280;20358;50.272;19.026;2022-09-04T06:53:50;98726.34;;;16.46;65.09
34081;BME280;20358;50.272;19.026;2022-09-04T06:57:15;98731.66;;;16.46;65.10
34081;BME280;20358;50.272;19.026;2022-09-04T07:00:29;98728.03;;;16.47;64.81
34081;BME280;20358;50.272;19.026;2022-09-04T07:03:58;98741.53;;;16.55;64.75
34081;BME280;20358;50.272;19.026;2022-09-04T07:07:17;98743.19;;;16.69;64.84
34081;BME280;20358;50.272;19.026;2022-09-04T07:10:30;98738.19;;;16.77;64.25
34081;BME280;20358;50.272;19.026;2022-09-04T07:13:49;98744.19;;;16.79;64.28
34081;BME280;20358;50.272;19.026;2022-09-04T07:17:13;98743.53;;;16.88;64.22
34081;BME280;20358;50.272;19.026;2022-09-04T07:20:30;98743.47;;;17.01;64.34
34081;BME280;20358;50.272;19.026;2022-09-04T07:23:44;98748.09;;;17.10;63.89
34081;BME280;20358;50.272;19.026;2022-09-04T07:27:09;98743.63;;;17.10;63.63
34081;BME280;20358;50.272;19.026;2022-09-04T07:30:17;98750.00;;;17.08;63.50
34081;BME280;20358;50.272;19.026;2022-09-04T07:33:33;98751.22;;;17.15;63.44
34081;BME280;20358;50.272;19.026;2022-09-04T07:36:45;98764.59;;;17.13;63.26
34081;BME280;20358;50.272;19.026;2022-09-04T07:40:00;98761.63;;;17.05;63.53
34081;BME280;20358;50.272;19.026;2022-09-04T07:43:16;98768.53;;;17.08;63.58
34081;BME280;20358;50.272;19.026;2022-09-04T07:46:31;98767.38;;;17.12;63.42
34081;BME280;20358;50.272;19.026;2022-09-04T07:49:52;98768.22;;;17.00;62.97
34081;BME280;20358;50.272;19.026;2022-09-04T07:53:21;98775.00;;;17.04;63.65
34081;BME280;20358;50.272;19.026;2022-09-04T07:56:42;98770.34;;;17.07;63.73
34081;BME280;20358;50.272;19.026;2022-09-04T08:00:03;98785.72;;;17.26;63.55
34081;BME280;20358;50.272;19.026;2022-09-04T08:03:31;98792.41;;;17.43;63.21
34081;BME280;20358;50.272;19.026;2022-09-04T08:07:02;98791.34;;;17.67;62.92
34081;BME280;20358;50.272;19.026;2022-09-04T08:10:22;98804.19;;;17.85;62.38
34081;BME280;20358;50.272;19.026;2022-09-04T08:13:45;98796.94;;;17.87;61.86
34081;BME280;20358;50.272;19.026;2022-09-04T08:17:18;98807.31;;;17.90;61.74
34081;BME280;20358;50.272;19.026;2022-09-04T08:20:39;98816.00;;;17.92;61.89
34081;BME280;20358;50.272;19.026;2022-09-04T08:24:04;98817.00;;;18.13;62.05
34081;BME280;20358;50.272;19.026;2022-09-04T08:27:28;98812.66;;;18.34;61.72
34081;BME280;20358;50.272;19.026;2022-09-04T08:30:53;98824.13;;;18.57;61.32
34081;BME280;20358;50.272;19.026;2022-09-04T08:34:34;98829.63;;;18.76;60.84
34081;BME280;20358;50.272;19.026;2022-09-04T08:38:21;98840.41;;;18.85;60.46
34081;BME280;20358;50.272;19.026;2022-09-04T08:42:03;98832.06;;;18.90;59.98
34081;BME280;20358;50.272;19.026;2022-09-04T08:45:33;98832.91;;;18.90;60.01
34081;BME280;20358;50.272;19.026;2022-09-04T08:53:14;98841.59;;;18.92;59.85
34081;BME280;20358;50.272;19.026;2022-09-04T08:56:26;98844.38;;;18.91;60.22
34081;BME280;20358;50.272;19.026;2022-09-04T09:03:53;98854.69;;;19.16;59.89
34081;BME280;20358;50.272;19.026;2022-09-04T09:07:27;98847.72;;;19.36;59.47
34081;BME280;20358;50.272;19.026;2022-09-04T09:11:26;98860.94;;;19.58;58.82
34081;BME280;20358;50.272;19.026;2022-09-04T09:15:12;98857.97;;;19.72;58.95
34081;BME280;20358;50.272;19.026;2022-09-04T09:18:36;98853.50;;;19.93;58.67
34081;BME280;20358;50.272;19.026;2022-09-04T09:21:44;98864.78;;;20.06;57.80
34081;BME280;20358;50.272;19.026;2022-09-04T09:25:13;98859.66;;;20.14;57.27
34081;BME280;20358;50.272;19.026;2022-09-04T09:32:37;98871.63;;;19.99;57.83
34081;BME280;20358;50.272;19.026;2022-09-04T09:43:28;98856.16;;;19.93;57.35
34081;BME280;20358;50.272;19.026;2022-09-04T09:58:39;98854.81;;;19.99;57.48
34081;BME280;20358;50.272;19.026;2022-09-04T10:05:43;98863.50;;;20.01;56.53
34081;BME280;20358;50.272;19.026;2022-09-04T10:09:26;98869.72;;;19.90;57.05
34081;BME280;20358;50.272;19.026;2022-09-04T10:13:01;98871.38;;;19.82;57.27
34081;BME280;20358;50.272;19.026;2022-09-04T10:16:38;98869.25;;;19.85;57.21
34081;BME280;20358;50.272;19.026;2022-09-04T10:20:21;98867.41;;;19.97;57.04
34081;BME280;20358;50.272;19.026;2022-09-04T10:23:58;98867.97;;;20.00;57.34
34081;BME280;20358;50.272;19.026;2022-09-04T10:34:58;98873.22;;;19.91;57.20
34081;BME280;20358;50.272;19.026;2022-09-04T10:38:25;98888.03;;;19.84;57.45
34081;BME280;20358;50.272;19.026;2022-09-04T10:45:15;98885.66;;;19.58;57.71
34081;BME280;20358;50.272;19.026;2022-09-04T10:48:44;98887.41;;;19.48;57.97
34081;BME280;20358;50.272;19.026;2022-09-04T10:52:10;98885.38;;;19.41;58.26
34081;BME280;20358;50.272;19.026;2022-09-04T11:02:38;98891.88;;;19.16;60.15
34081;BME280;20358;50.272;19.026;2022-09-04T11:06:15;98901.19;;;19.11;60.51
34081;BME280;20358;50.272;19.026;2022-09-04T11:09:43;98902.91;;;19.00;60.74
34081;BME280;20358;50.272;19.026;2022-09-04T11:24:44;98884.06;;;18.92;61.89
34081;BME280;20358;50.272;19.026;2022-09-04T11:28:29;98886.69;;;18.81;62.95
34081;BME280;20358;50.272;19.026;2022-09-04T11:31:59;98898.53;;;18.66;63.78
34081;BME280;20358;50.272;19.026;2022-09-04T11:39:10;98901.69;;;18.49;65.35
34081;BME280;20358;50.272;19.026;2022-09-04T11:42:32;98898.66;;;18.54;65.78
34081;BME280;20358;50.272;19.026;2022-09-04T11:46:06;98904.09;;;18.63;65.95
34081;BME280;20358;50.272;19.026;2022-09-04T11:49:47;98902.66;;;18.59;65.74
34081;BME280;20358;50.272;19.026;2022-09-04T11:53:25;98902.66;;;18.59;66.10
34081;BME280;20358;50.272;19.026;2022-09-04T11:57:03;98892.50;;;18.53;65.94
34081;BME280;20358;50.272;19.026;2022-09-04T12:00:15;98886.22;;;18.43;65.99
34081;BME280;20358;50.272;19.026;2022-09-04T12:03:55;98886.47;;;18.40;66.03
34081;BME280;20358;50.272;19.026;2022-09-04T12:07:21;98886.47;;;18.40;66.43
34081;BME280;20358;50.272;19.026;2022-09-04T12:10:53;98889.03;;;18.42;66.47
34081;BME280;20358;50.272;19.026;2022-09-04T12:14:22;98892.97;;;18.47;66.56
34081;BME280;20358;50.272;19.026;2022-09-04T12:29:37;98893.34;;;19.09;67.29
34081;BME280;20358;50.272;19.026;2022-09-04T12:33:16;98893.06;;;19.23;66.55
34081;BME280;20358;50.272;19.026;2022-09-04T12:36:49;98891.47;;;19.32;66.47
34081;BME280;20358;50.272;19.026;2022-09-04T12:40:32;98883.25;;;19.35;65.96
34081;BME280;20358;50.272;19.026;2022-09-04T12:43:47;98883.75;;;19.29;65.71
34081;BME280;20358;50.272;19.026;2022-09-04T12:47:07;98882.88;;;19.28;66.21
34081;BME280;20358;50.272;19.026;2022-09-04T12:50:22;98881.56;;;19.34;66.23
34081;BME280;20358;50.272;19.026;2022-09-04T12:57:28;98881.06;;;19.40;66.21
34081;BME280;20358;50.272;19.026;2022-09-04T13:00:44;98878.78;;;19.56;65.61
34081;BME280;20358;50.272;19.026;2022-09-04T13:04:02;98887.94;;;19.74;65.44
34081;BME280;20358;50.272;19.026;2022-09-04T13:07:23;98890.09;;;19.80;65.12
34081;BME280;20358;50.272;19.026;2022-09-04T13:10:36;98888.22;;;19.92;64.84
34081;BME280;20358;50.272;19.026;2022-09-04T13:14:03;98873.03;;;20.03;64.68
34081;BME280;20358;50.272;19.026;2022-09-04T13:17:17;98880.81;;;20.16;64.29
34081;BME280;20358;50.272;19.026;2022-09-04T13:20:31;98881.31;;;20.31;63.82
34081;BME280;20358;50.272;19.026;2022-09-04T13:23:52;98875.63;;;20.45;63.37
34081;BME280;20358;50.272;19.026;2022-09-04T13:27:32;98880.94;;;20.65;63.02
34081;BME280;20358;50.272;19.026;2022-09-04T13:30:48;98886.03;;;20.78;62.61
34081;BME280;20358;50.272;19.026;2022-09-04T13:34:06;98884.97;;;20.90;62.27
34081;BME280;20358;50.272;19.026;2022-09-04T13:37:23;98881.88;;;20.95;61.30
34081;BME280;20358;50.272;19.026;2022-09-04T13:40:44;98892.41;;;20.96;61.43
34081;BME280;20358;50.272;19.026;2022-09-04T13:44:25;98892.13;;;20.99;61.44
34081;BME280;20358;50.272;19.026;2022-09-04T13:47:48;98886.94;;;20.98;61.22
34081;BME280;20358;50.272;19.026;2022-09-04T13:51:00;98884.97;;;21.00;60.94
34081;BME280;20358;50.272;19.026;2022-09-04T13:54:18;98892.28;;;20.98;60.92
34081;BME280;20358;50.272;19.026;2022-09-04T13:57:29;98886.09;;;20.97;61.36
34081;BME280;20358;50.272;19.026;2022-09-04T14:00:43;98893.16;;;21.08;61.42
34081;BME280;20358;50.272;19.026;2022-09-04T14:03:56;98892.03;;;21.20;61.26
34081;BME280;20358;50.272;19.026;2022-09-04T14:07:12;98894.91;;;21.28;60.52
34081;BME280;20358;50.272;19.026;2022-09-04T14:10:22;98892.22;;;21.37;60.01
34081;BME280;20358;50.272;19.026;2022-09-04T14:14:02;98889.44;;;21.49;59.46
34081;BME280;20358;50.272;19.026;2022-09-04T14:17:13;98895.91;;;21.56;59.22
34081;BME280;20358;50.272;19.026;2022-09-04T14:20:31;98897.75;;;21.55;59.29
34081;BME280;20358;50.272;19.026;2022-09-04T14:23:46;98895.19;;;21.54;58.85
34081;BME280;20358;50.272;19.026;2022-09-04T14:27:00;98894.06;;;21.47;59.24
34081;BME280;20358;50.272;19.026;2022-09-04T14:30:14;98890.56;;;21.46;59.53
34081;BME280;20358;50.272;19.026;2022-09-04T14:33:25;98895.19;;;21.54;59.29
34081;BME280;20358;50.272;19.026;2022-09-04T14:36:46;98897.47;;;21.58;59.08
34081;BME280;20358;50.272;19.026;2022-09-04T14:40:03;98907.56;;;21.55;58.95
34081;BME280;20358;50.272;19.026;2022-09-04T14:43:18;98901.22;;;21.46;59.13
34081;BME280;20358;50.272;19.026;2022-09-04T14:46:33;98903.34;;;21.42;59.46
34081;BME280;20358;50.272;19.026;2022-09-04T14:49:46;98903.63;;;21.39;59.57
34081;BME280;20358;50.272;19.026;2022-09-04T14:52:58;98912.31;;;21.41;59.73
34081;BME280;20358;50.272;19.026;2022-09-04T14:56:21;98911.47;;;21.41;59.15
34081;BME280;20358;50.272;19.026;2022-09-04T14:59:33;98915.41;;;21.37;59.32
34081;BME280;20358;50.272;19.026;2022-09-04T15:02:45;98916.53;;;21.34;59.64
34081;BME280;20358;50.272;19.026;2022-09-04T15:05:56;98922.41;;;21.28;59.87
34081;BME280;20358;50.272;19.026;2022-09-04T15:09:20;98922.66;;;21.25;59.53
34081;BME280;20358;50.272;19.026;2022-09-04T15:12:32;98915.75;;;21.13;59.89
34081;BME280;20358;50.272;19.026;2022-09-04T15:15:41;98918.81;;;21.09;60.04
34081;BME280;20358;50.272;19.026;2022-09-04T15:18:56;98915.84;;;21.02;60.05
34081;BME280;20358;50.272;19.026;2022-09-04T15:22:11;98915.00;;;21.02;60.56
34081;BME280;20358;50.272;19.026;2022-09-04T15:25:51;98912.22;;;21.03;60.82
34081;BME280;20358;50.272;19.026;2022-09-04T15:29:09;98908.25;;;20.98;61.17
34081;BME280;20358;50.272;19.026;2022-09-04T15:32:20;98908.38;;;20.96;61.34
34081;BME280;20358;50.272;19.026;2022-09-04T15:35:28;98917.22;;;20.97;61.50
34081;BME280;20358;50.272;19.026;2022-09-04T15:38:36;98910.63;;;20.91;61.39
34081;BME280;20358;50.272;19.026;2022-09-04T15:41:48;98915.50;;;20.86;61.47
34081;BME280;20358;50.272;19.026;2022-09-04T15:44:58;98912.66;;;20.78;61.86
34081;BME280;20358;50.272;19.026;2022-09-04T15:48:34;98912.38;;;20.71;62.02
34081;BME280;20358;50.272;19.026;2022-09-04T15:51:52;98914.00;;;20.63;62.08
34081;BME280;20358;50.272;19.026;2022-09-04T15:55:08;98917.66;;;20.62;62.32
34081;BME280;20358;50.272;19.026;2022-09-04T15:58:24;98910.91;;;20.58;62.20
34081;BME280;20358;50.272;19.026;2022-09-04T16:01:41;98917.34;;;20.55;62.28
34081;BME280;20358;50.272;19.026;2022-09-04T16:04:55;98909.75;;;20.51;62.41
34081;BME280;20358;50.272;19.026;2022-09-04T16:08:14;98913.63;;;20.47;62.53
34081;BME280;20358;50.272;19.026;2022-09-04T16:11:29;98914.16;;;20.41;62.84
34081;BME280;20358;50.272;19.026;2022-09-04T16:14:43;98917.06;;;20.38;62.93
34081;BME280;20358;50.272;19.026;2022-09-04T16:17:52;98915.94;;;20.31;63.04
34081;BME280;20358;50.272;19.026;2022-09-04T16:21:00;98910.16;;;20.26;63.13
34081;BME280;20358;50.272;19.026;2022-09-04T16:24:13;98919.59;;;20.18;63.21
34081;BME280;20358;50.272;19.026;2022-09-04T16:27:23;98914.81;;;20.12;63.51
34081;BME280;20358;50.272;19.026;2022-09-04T16:30:37;98916.50;;;20.13;63.62
34081;BME280;20358;50.272;19.026;2022-09-04T16:33:47;98926.44;;;20.11;63.50
34081;BME280;20358;50.272;19.026;2022-09-04T16:37:04;98926.94;;;20.05;63.67
34081;BME280;20358;50.272;19.026;2022-09-04T16:40:22;98930.13;;;19.99;64.08
34081;BME280;20358;50.272;19.026;2022-09-04T16:43:31;98930.63;;;19.93;64.27
34081;BME280;20358;50.272;19.026;2022-09-04T16:46:45;98927.28;;;19.91;64.27
34081;BME280;20358;50.272;19.026;2022-09-04T16:50:11;98937.31;;;19.88;64.61
34081;BME280;20358;50.272;19.026;2022-09-04T16:53:29;98932.38;;;19.83;64.84
34081;BME280;20358;50.272;19.026;2022-09-04T16:56:40;98936.28;;;19.79;65.08
34081;BME280;20358;50.272;19.026;2022-09-04T16:59:54;98937.50;;;19.75;65.17
34081;BME280;20358;50.272;19.026;2022-09-04T17:03:17;98934.13;;;19.73;65.46
34081;BME280;20358;50.272;19.026;2022-09-04T17:06:28;98938.97;;;19.68;65.62
34081;BME280;20358;50.272;19.026;2022-09-04T17:09:53;98948.03;;;19.66;65.80
34081;BME280;20358;50.272;19.026;2022-09-04T17:13:09;98952.97;;;19.59;66.06
34081;BME280;20358;50.272;19.026;2022-09-04T17:16:19;98940.94;;;19.55;66.28
34081;BME280;20358;50.272;19.026;2022-09-04T17:19:29;98943.84;;;19.52;66.55
34081;BME280;20358;50.272;19.026;2022-09-04T17:22:41;98955.41;;;19.51;66.53
34081;BME280;20358;50.272;19.026;2022-09-04T17:26:11;98948.69;;;19.47;66.79
34081;BME280;20358;50.272;19.026;2022-09-04T17:29:43;98956.44;;;19.39;66.85
34081;BME280;20358;50.272;19.026;2022-09-04T17:32:55;98954.16;;;19.34;67.21
34081;BME280;20358;50.272;19.026;2022-09-04T17:36:34;98953.53;;;19.31;67.31
34081;BME280;20358;50.272;19.026;2022-09-04T17:40:08;98961.03;;;19.26;67.57
34081;BME280;20358;50.272;19.026;2022-09-04T17:43:49;98959.63;;;19.22;67.72
34081;BME280;20358;50.272;19.026;2022-09-04T17:47:13;98966.13;;;19.18;67.88
34081;BME280;20358;50.272;19.026;2022-09-04T17:50:24;98963.13;;;19.11;67.93
34081;BME280;20358;50.272;19.026;2022-09-04T17:53:36;98971.81;;;19.02;67.94
34081;BME280;20358;50.272;19.026;2022-09-04T17:56:47;98972.41;;;18.94;68.30
34081;BME280;20358;50.272;19.026;2022-09-04T18:00:00;98985.22;;;18.89;68.37
34081;BME280;20358;50.272;19.026;2022-09-04T18:03:19;98994.41;;;18.85;68.50
34081;BME280;20358;50.272;19.026;2022-09-04T18:06:35;99001.63;;;18.83;68.58
34081;BME280;20358;50.272;19.026;2022-09-04T18:09:54;99000.78;;;18.83;68.90
34081;BME280;20358;50.272;19.026;2022-09-04T18:13:10;99002.81;;;18.79;68.88
34081;BME280;20358;50.272;19.026;2022-09-04T18:16:53;98999.53;;;18.76;68.96
34081;BME280;20358;50.272;19.026;2022-09-04T18:20:20;99008.00;;;18.70;69.22
34081;BME280;20358;50.272;19.026;2022-09-04T18:23:45;99012.47;;;18.69;69.58
34081;BME280;20358;50.272;19.026;2022-09-04T18:27:01;99022.59;;;18.64;69.59
34081;BME280;20358;50.272;19.026;2022-09-04T18:30:12;99015.81;;;18.60;69.92
34081;BME280;20358;50.272;19.026;2022-09-04T18:33:41;99028.34;;;18.58;70.02
34081;BME280;20358;50.272;19.026;2022-09-04T18:37:15;99037.53;;;18.54;70.13
34081;BME280;20358;50.272;19.026;2022-09-04T18:40:45;99028.81;;;18.52;70.14
34081;BME280;20358;50.272;19.026;2022-09-04T18:44:18;99034.13;;;18.52;70.17
34081;BME280;20358;50.272;19.026;2022-09-04T18:47:49;99032.69;;;18.48;70.24
34081;BME280;20358;50.272;19.026;2022-09-04T18:51:19;99039.19;;;18.44;70.47
34081;BME280;20358;50.272;19.026;2022-09-04T18:54:37;99036.88;;;18.39;70.70
34081;BME280;20358;50.272;19.026;2022-09-04T18:57:49;99036.13;;;18.37;70.77
34081;BME280;20358;50.272;19.026;2022-09-04T19:01:02;99038.91;;;18.36;71.02